Time;durP1;ratioP1;P1;durP2;ratioP2;P2;SDS_P1;SDS_P2;PMS_P1;PMS_P2;Temp;Humidity;BMP_temperature;BMP_pressure;BME280_temperature;BME280_humidity;BME280_pressure;Samples;Min_cycle;Max_cycle;Signal;HPM_P1;HPM_P2
2021/04/07 00:01:45;;;;;;;5.03;0.90;;;1.90;99.90;;;;;;4971340;28;20252;-75
2021/04/07 00:04:11;;;;;;;5.53;0.90;;;1.90;99.90;;;;;;4992035;28;20201;-75
2021/04/07 00:06:39;;;;;;;7.37;1.20;;;1.90;99.90;;;;;;4992203;28;20225;-75
2021/04/07 00:09:05;;;;;;;9.10;1.40;;;1.90;99.90;;;;;;4991757;28;20607;-75
2021/04/07 00:11:31;;;;;;;10.30;1.40;;;1.90;99.90;;;;;;4991991;28;20552;-76
2021/04/07 00:13:58;;;;;;;8.43;1.00;;;1.80;99.90;;;;;;4990807;28;20181;-75
2021/04/07 00:16:25;;;;;;;8.47;1.27;;;1.90;99.90;;;;;;4991218;28;20205;-76
2021/04/07 00:18:50;;;;;;;8.20;1.20;;;1.80;99.90;;;;;;4971090;28;20174;-76
2021/04/07 00:21:17;;;;;;;5.23;0.90;;;1.80;99.90;;;;;;4971892;28;20175;-75
2021/04/07 00:23:42;;;;;;;7.80;1.10;;;1.80;99.90;;;;;;4971318;28;20178;-76
2021/04/07 00:26:08;;;;;;;10.07;1.30;;;1.80;99.90;;;;;;4972428;28;20193;-75
2021/04/07 00:28:34;;;;;;;4.43;1.10;;;1.80;99.90;;;;;;4971098;28;20179;-76
2021/04/07 00:30:59;;;;;;;8.40;1.40;;;1.80;99.90;;;;;;4975281;28;20200;-76
2021/04/07 00:33:25;;;;;;;8.63;1.23;;;1.80;99.90;;;;;;4995504;28;20670;-76
2021/04/07 00:35:50;;;;;;;5.97;1.10;;;1.70;99.90;;;;;;4987384;28;20587;-76
2021/04/07 00:38:16;;;;;;;9.63;1.30;;;1.70;99.90;;;;;;4976037;28;20171;-75
2021/04/07 00:40:42;;;;;;;7.40;1.53;;;1.60;99.90;;;;;;4975783;28;20245;-76
2021/04/07 00:43:08;;;;;;;11.60;1.60;;;1.60;99.90;;;;;;4988719;28;20177;-76
2021/04/07 00:45:33;;;;;;;7.63;1.00;;;1.60;99.90;;;;;;4995225;28;20184;-76
2021/04/07 00:47:59;;;;;;;4.97;0.90;;;1.60;99.90;;;;;;4995233;28;20616;-76
2021/04/07 00:50:27;;;;;;;6.37;0.77;;;1.60;99.90;;;;;;4993775;28;20290;-75
2021/04/07 00:52:53;;;;;;;13.27;2.27;;;1.60;99.90;;;;;;4995290;28;20836;-76
2021/04/07 00:55:22;;;;;;;8.33;1.17;;;1.50;99.90;;;;;;4993831;28;20208;-75
2021/04/07 00:57:48;;;;;;;6.67;1.30;;;1.50;99.90;;;;;;4993760;28;20236;-75
2021/04/07 01:00:15;;;;;;;7.40;1.33;;;1.50;99.90;;;;;;4986015;28;20209;-76
2021/04/07 01:02:41;;;;;;;7.63;0.97;;;1.50;99.90;;;;;;4975451;28;20171;-75
2021/04/07 01:05:08;;;;;;;11.63;1.50;;;1.50;99.90;;;;;;4975635;28;20589;-76
2021/04/07 01:07:34;;;;;;;8.17;1.33;;;1.50;99.90;;;;;;4975410;28;20174;-76
2021/04/07 01:10:00;;;;;;;7.20;0.93;;;1.50;99.90;;;;;;4990151;28;20278;-76
2021/04/07 01:12:25;;;;;;;10.33;1.17;;;1.50;99.90;;;;;;4975326;28;20170;-76
2021/04/07 01:14:51;;;;;;;5.47;0.70;;;1.50;99.90;;;;;;4988738;28;20257;-75
2021/04/07 01:17:18;;;;;;;12.80;1.53;;;1.40;99.90;;;;;;4994793;28;20177;-76
2021/04/07 01:19:44;;;;;;;10.20;1.03;;;1.40;99.90;;;;;;4994461;28;20190;-76
2021/04/07 01:22:10;;;;;;;4.80;0.93;;;1.50;99.90;;;;;;4994095;28;20585;-75
2021/04/07 01:24:36;;;;;;;4.23;1.10;;;1.40;99.90;;;;;;4994525;28;20196;-77
2021/04/07 01:27:01;;;;;;;4.40;0.70;;;1.40;99.90;;;;;;4976830;28;20197;-76
2021/04/07 01:29:27;;;;;;;6.83;0.93;;;1.40;99.90;;;;;;4974703;28;20569;-76
2021/04/07 01:31:55;;;;;;;10.67;1.10;;;1.40;99.90;;;;;;4974961;28;20220;-76
2021/04/07 01:34:30;;;;;;;4.60;1.03;;;1.40;99.90;;;;;;4974954;28;20171;-75
2021/04/07 01:36:57;;;;;;;9.40;1.30;;;1.40;99.90;;;;;;4974787;28;20723;-76
2021/04/07 01:39:25;;;;;;;6.37;0.97;;;1.40;99.90;;;;;;4973267;28;20201;-75
2021/04/07 01:41:51;;;;;;;5.13;0.80;;;1.40;99.90;;;;;;4973307;28;20277;-76
2021/04/07 01:44:18;;;;;;;8.10;0.90;;;1.40;99.90;;;;;;4972752;28;20269;-76
2021/04/07 01:46:44;;;;;;;7.23;1.13;;;1.30;99.90;;;;;;4973613;28;20189;-75
2021/04/07 01:49:11;;;;;;;5.47;0.70;;;1.30;99.90;;;;;;4975319;28;20234;-75
2021/04/07 01:51:37;;;;;;;6.17;1.03;;;1.30;99.90;;;;;;4973360;28;20185;-76
2021/04/07 01:54:05;;;;;;;5.57;0.90;;;1.30;99.90;;;;;;4974733;28;20309;-75
2021/04/07 01:56:31;;;;;;;7.40;0.90;;;1.30;99.90;;;;;;4973104;28;20201;-76
2021/04/07 01:59:06;;;;;;;4.20;1.07;;;1.30;99.90;;;;;;4974241;28;20178;-76
2021/04/07 02:01:36;;;;;;;5.10;0.90;;;1.20;99.90;;;;;;4974548;28;20170;-75
2021/04/07 02:04:03;;;;;;;9.17;0.80;;;1.20;99.90;;;;;;4974400;28;20229;-76
2021/04/07 02:06:28;;;;;;;8.57;1.37;;;1.30;99.90;;;;;;4989261;28;20660;-75
2021/04/07 02:08:54;;;;;;;6.93;0.80;;;1.30;99.90;;;;;;4977879;28;20251;-75
2021/04/07 02:11:20;;;;;;;9.03;1.03;;;1.30;99.90;;;;;;4993525;28;20229;-76
2021/04/07 02:13:46;;;;;;;8.60;0.90;;;1.40;99.90;;;;;;4992074;28;20640;-76
2021/04/07 02:16:13;;;;;;;6.77;0.70;;;1.30;99.90;;;;;;4993726;28;20256;-78
2021/04/07 02:18:39;;;;;;;10.07;1.20;;;1.30;99.90;;;;;;4993377;28;20177;-75
2021/04/07 02:21:05;;;;;;;6.43;1.00;;;1.40;99.90;;;;;;4989188;28;20208;-75
2021/04/07 02:23:32;;;;;;;7.23;1.27;;;1.30;99.90;;;;;;4972641;28;20174;-75
2021/04/07 02:25:58;;;;;;;6.83;1.00;;;1.40;99.90;;;;;;4974055;28;20174;-76
2021/04/07 02:28:24;;;;;;;10.57;1.10;;;1.40;99.90;;;;;;4973834;28;20228;-76
2021/04/07 02:30:50;;;;;;;8.37;1.00;;;1.40;99.90;;;;;;4973899;28;20224;-77
2021/04/07 02:33:15;;;;;;;5.10;0.83;;;1.50;99.90;;;;;;4973900;28;20621;-75
2021/04/07 02:35:41;;;;;;;10.90;1.20;;;1.50;99.90;;;;;;4973949;28;20233;-75
2021/04/07 02:38:10;;;;;;;8.57;1.00;;;1.60;99.90;;;;;;4973645;28;20531;-76
2021/04/07 02:40:36;;;;;;;7.30;1.03;;;1.60;99.90;;;;;;4973519;28;20583;-75
2021/04/07 02:43:02;;;;;;;4.67;0.70;;;1.60;99.90;;;;;;4973778;28;20174;-75
2021/04/07 02:45:27;;;;;;;7.17;1.27;;;1.60;99.90;;;;;;4988524;28;20702;-75
2021/04/07 02:47:53;;;;;;;7.80;1.03;;;1.60;99.90;;;;;;4972439;28;20727;-76
2021/04/07 02:50:19;;;;;;;5.93;0.97;;;1.60;99.90;;;;;;4973846;28;20556;-75
2021/04/07 02:52:44;;;;;;;5.47;0.80;;;1.50;99.90;;;;;;4973404;28;20174;-76
2021/04/07 02:55:10;;;;;;;6.27;1.03;;;1.50;99.90;;;;;;4973368;28;20170;-76
2021/04/07 02:57:37;;;;;;;6.27;1.33;;;1.40;99.90;;;;;;4972264;28;20479;-76
2021/04/07 03:00:05;;;;;;;6.03;0.83;;;1.40;99.90;;;;;;4982499;28;20260;-76
2021/04/07 03:02:31;;;;;;;7.10;1.20;;;1.40;99.90;;;;;;4992597;28;20182;-75
2021/04/07 03:04:57;;;;;;;5.90;0.87;;;1.40;99.90;;;;;;4992838;28;20197;-76
2021/04/07 03:07:23;;;;;;;6.10;1.00;;;1.40;99.90;;;;;;4989766;28;20181;-76
2021/04/07 03:09:49;;;;;;;8.13;1.00;;;1.40;99.90;;;;;;4973000;28;20194;-76
2021/04/07 03:12:15;;;;;;;8.17;1.00;;;1.40;99.90;;;;;;4973314;28;20178;-76
2021/04/07 03:14:40;;;;;;;6.40;0.80;;;1.40;99.90;;;;;;4973312;28;20595;-76
2021/04/07 03:17:06;;;;;;;5.70;1.03;;;1.40;99.90;;;;;;4988025;28;20217;-75
2021/04/07 03:19:32;;;;;;;7.40;0.93;;;1.40;99.90;;;;;;4971686;28;20198;-76
2021/04/07 03:21:57;;;;;;;9.57;1.30;;;1.40;99.90;;;;;;4972507;28;20205;-76
2021/04/07 03:24:23;;;;;;;6.07;1.23;;;1.40;99.90;;;;;;4980734;28;20190;-76
2021/04/07 03:26:48;;;;;;;14.63;1.20;;;1.40;99.90;;;;;;4991121;28;20683;-76
2021/04/07 03:29:14;;;;;;;8.20;1.03;;;1.40;99.90;;;;;;4974199;28;20198;-76
2021/04/07 03:31:39;;;;;;;7.03;0.80;;;1.40;99.90;;;;;;4971551;28;20496;-76
2021/04/07 03:34:05;;;;;;;6.43;1.13;;;1.40;99.90;;;;;;4988036;28;20628;-75
2021/04/07 03:36:30;;;;;;;7.63;0.87;;;1.40;99.90;;;;;;4972823;28;20208;-75
2021/04/07 03:38:56;;;;;;;4.60;0.80;;;1.40;99.90;;;;;;4971470;28;20177;-78
2021/04/07 03:41:21;;;;;;;4.13;0.60;;;1.30;99.90;;;;;;4987832;28;20174;-78
2021/04/07 03:43:47;;;;;;;8.27;0.87;;;1.30;99.90;;;;;;4972845;28;20695;-78
2021/04/07 03:46:15;;;;;;;7.37;1.20;;;1.30;99.90;;;;;;4971717;28;20277;-78
2021/04/07 03:48:41;;;;;;;9.70;1.20;;;1.30;99.90;;;;;;4972708;28;20276;-78
2021/04/07 03:51:06;;;;;;;11.23;1.30;;;1.30;99.90;;;;;;4973507;28;20699;-77
2021/04/07 03:53:32;;;;;;;11.00;1.37;;;1.30;99.90;;;;;;4972610;28;20726;-78
2021/04/07 03:55:57;;;;;;;9.57;1.30;;;1.30;99.90;;;;;;4972877;28;20206;-77
2021/04/07 03:58:24;;;;;;;6.63;1.50;;;1.20;99.90;;;;;;4971043;28;20257;-77
2021/04/07 04:00:51;;;;;;;9.67;1.53;;;1.20;99.90;;;;;;4972510;28;20206;-75
2021/04/07 04:03:16;;;;;;;9.90;0.87;;;1.20;99.90;;;;;;4972882;28;20538;-76
2021/04/07 04:05:42;;;;;;;9.33;1.17;;;1.30;99.90;;;;;;4973210;28;20656;-77
2021/04/07 04:08:08;;;;;;;5.10;1.07;;;1.40;99.90;;;;;;4976765;28;20185;-74
2021/04/07 04:10:34;;;;;;;8.93;0.90;;;1.40;99.90;;;;;;4976110;28;20256;-74
2021/04/07 04:13:01;;;;;;;5.20;0.70;;;1.40;99.90;;;;;;4991534;28;20594;-77
2021/04/07 04:15:26;;;;;;;7.10;1.10;;;1.40;99.90;;;;;;4990405;28;20205;-75
2021/04/07 04:17:52;;;;;;;8.67;1.13;;;1.40;99.90;;;;;;4995837;28;20373;-77
2021/04/07 04:20:18;;;;;;;5.87;1.13;;;1.30;99.90;;;;;;4995615;28;20201;-78
2021/04/07 04:22:45;;;;;;;7.20;1.03;;;1.20;99.90;;;;;;4995248;28;20189;-75
2021/04/07 04:25:16;;;;;;;6.30;1.33;;;1.20;99.90;;;;;;4994596;28;20182;-77
2021/04/07 04:27:41;;;;;;;10.07;1.87;;;1.20;99.90;;;;;;4990962;28;20233;-77
2021/04/07 04:30:10;;;;;;;7.10;1.80;;;1.20;99.90;;;;;;4990894;28;20202;-75
2021/04/07 04:32:35;;;;;;;8.07;1.80;;;1.20;99.90;;;;;;4974820;28;20210;-75
2021/04/07 04:35:01;;;;;;;7.73;1.20;;;1.20;99.90;;;;;;4987728;28;20606;-76
2021/04/07 04:37:27;;;;;;;8.20;1.60;;;1.10;99.90;;;;;;4994351;28;20204;-75
2021/04/07 04:39:52;;;;;;;7.77;2.10;;;1.00;99.90;;;;;;4994191;28;20197;-75
2021/04/07 04:42:18;;;;;;;8.90;1.70;;;1.00;99.90;;;;;;4994123;28;20205;-75
2021/04/07 04:44:44;;;;;;;10.47;1.73;;;0.90;99.90;;;;;;4995456;28;20237;-75
2021/04/07 04:47:10;;;;;;;10.13;1.60;;;0.90;99.90;;;;;;4995414;28;20182;-75
2021/04/07 04:49:35;;;;;;;8.40;1.30;;;0.90;99.90;;;;;;4994997;28;20541;-75
2021/04/07 04:52:01;;;;;;;4.47;1.10;;;0.80;99.90;;;;;;4995382;28;20687;-77
2021/04/07 04:54:26;;;;;;;6.33;1.00;;;0.80;99.90;;;;;;4995182;28;20675;-75
2021/04/07 04:56:52;;;;;;;5.93;0.97;;;0.80;99.90;;;;;;4993828;28;20224;-76
2021/04/07 04:59:17;;;;;;;4.47;1.37;;;0.70;99.90;;;;;;4993959;28;20284;-78
2021/04/07 05:01:43;;;;;;;6.40;0.90;;;0.80;99.90;;;;;;4994628;28;20252;-77
2021/04/07 05:04:08;;;;;;;9.47;1.37;;;0.80;99.90;;;;;;4968078;28;20236;-77
2021/04/07 05:06:35;;;;;;;5.17;1.23;;;0.80;99.90;;;;;;4973591;28;20182;-77
2021/04/07 05:09:01;;;;;;;10.03;1.50;;;0.90;99.90;;;;;;4973529;28;20186;-75
2021/04/07 05:11:26;;;;;;;7.90;1.50;;;0.90;99.90;;;;;;4975177;28;20288;-77
2021/04/07 05:13:52;;;;;;;7.57;1.43;;;0.80;99.90;;;;;;4975027;28;20660;-75
2021/04/07 05:16:18;;;;;;;9.73;1.53;;;0.70;99.90;;;;;;4975314;28;20206;-77
2021/04/07 05:18:43;;;;;;;4.43;0.93;;;0.80;99.90;;;;;;4973969;28;20186;-77
2021/04/07 05:21:09;;;;;;;6.37;1.13;;;0.80;99.90;;;;;;4972591;28;20699;-74
2021/04/07 05:23:34;;;;;;;8.00;1.27;;;0.80;99.90;;;;;;4974971;28;20257;-75
2021/04/07 05:26:00;;;;;;;6.20;0.77;;;0.80;99.90;;;;;;4975079;28;20569;-74
2021/04/07 05:28:25;;;;;;;7.77;1.63;;;0.80;99.90;;;;;;4974906;28;20183;-77
2021/04/07 05:31:00;;;;;;;4.83;1.33;;;0.80;99.90;;;;;;4974832;28;20221;-77
2021/04/07 05:33:34;;;;;;;6.67;1.23;;;0.80;99.90;;;;;;4974795;28;20248;-75
2021/04/07 05:36:03;;;;;;;6.70;1.23;;;0.80;99.90;;;;;;4973588;28;20223;-78
2021/04/07 05:38:29;;;;;;;12.37;1.60;;;1.00;99.90;;;;;;4979732;28;20652;-78
2021/04/07 05:40:56;;;;;;;14.33;2.60;;;1.00;99.90;;;;;;4976166;28;20230;-77
2021/04/07 05:43:22;;;;;;;16.00;6.00;;;1.10;99.90;;;;;;4973059;28;20178;-78
2021/04/07 05:45:48;;;;;;;14.60;5.00;;;1.10;99.90;;;;;;4974784;28;20226;-77
2021/04/07 05:48:15;;;;;;;20.83;7.07;;;1.20;99.90;;;;;;4980937;28;20189;-75
2021/04/07 05:50:48;;;;;;;15.23;4.93;;;1.20;99.90;;;;;;4977067;28;20213;-77
2021/04/07 05:53:14;;;;;;;11.33;4.87;;;1.20;99.90;;;;;;4974589;28;20222;-77
2021/04/07 05:55:45;;;;;;;68.37;31.50;;;1.20;99.90;;;;;;4972668;28;20295;-75
2021/04/07 05:58:11;;;;;;;34.67;17.67;;;1.40;99.90;;;;;;4973259;28;20261;-75
2021/04/07 06:00:37;;;;;;;13.17;6.23;;;1.40;99.90;;;;;;5006044;23;20283;-78
2021/04/07 06:03:04;;;;;;;7.67;2.40;;;1.50;99.90;;;;;;4978902;28;20468;-77
2021/04/07 06:05:30;;;;;;;7.47;1.93;;;1.60;99.90;;;;;;4978505;28;20177;-77
2021/04/07 06:07:56;;;;;;;4.80;1.77;;;1.70;99.90;;;;;;4979468;28;20201;-77
2021/04/07 06:10:23;;;;;;;6.63;1.50;;;1.70;99.90;;;;;;4996615;28;20208;-80
2021/04/07 06:12:48;;;;;;;6.77;1.03;;;1.80;99.90;;;;;;4978071;28;20174;-77
2021/04/07 06:15:15;;;;;;;5.93;1.07;;;1.90;99.90;;;;;;4971699;28;20200;-76
2021/04/07 06:17:43;;;;;;;4.40;1.53;;;2.00;99.90;;;;;;4983049;28;20600;-78
2021/04/07 06:20:10;;;;;;;9.37;1.83;;;2.10;99.90;;;;;;4950770;29;20294;-78
2021/04/07 06:22:37;;;;;;;7.93;2.17;;;2.30;99.90;;;;;;4942581;29;20739;-79
2021/04/07 06:25:04;;;;;;;7.60;2.07;;;2.40;99.90;;;;;;4954997;28;20309;-78
2021/04/07 06:27:30;;;;;;;5.17;1.20;;;2.40;99.90;;;;;;4960496;28;20609;-75
2021/04/07 06:29:59;;;;;;;4.40;0.70;;;2.50;99.90;;;;;;4977520;28;20210;-78
2021/04/07 06:32:24;;;;;;;4.53;0.87;;;2.50;99.90;;;;;;4978410;28;20187;-78
2021/04/07 06:34:50;;;;;;;4.10;0.87;;;2.60;99.90;;;;;;4960616;28;20182;-77
2021/04/07 06:37:15;;;;;;;8.17;1.57;;;2.80;99.90;;;;;;4960920;28;20210;-78
2021/04/07 06:39:41;;;;;;;2.20;0.70;;;2.80;99.90;;;;;;4957959;28;20202;-78
2021/04/07 06:42:07;;;;;;;5.23;0.93;;;2.90;99.90;;;;;;4954620;28;20555;-76
2021/04/07 06:44:34;;;;;;;6.23;1.00;;;2.90;99.90;;;;;;4956161;28;20565;-77
2021/04/07 06:46:59;;;;;;;4.77;0.60;;;3.10;99.90;;;;;;4949149;28;20682;-77
2021/04/07 06:49:26;;;;;;;4.57;0.70;;;3.20;99.90;;;;;;4952411;28;20269;-77
2021/04/07 06:51:55;;;;;;;5.37;1.00;;;3.20;99.90;;;;;;4955431;28;20197;-78
2021/04/07 06:54:22;;;;;;;5.20;1.00;;;3.30;99.90;;;;;;4972158;28;20258;-77
2021/04/07 06:56:49;;;;;;;4.93;0.90;;;3.50;99.90;;;;;;4965163;28;20211;-77
2021/04/07 06:59:15;;;;;;;2.23;0.60;;;3.50;99.90;;;;;;4975552;28;20281;-75
2021/04/07 07:01:41;;;;;;;5.33;1.10;;;3.60;99.90;;;;;;4968596;28;20214;-77
2021/04/07 07:04:06;;;;;;;7.07;1.67;;;3.80;99.90;;;;;;4957554;28;20273;-77
2021/04/07 07:06:33;;;;;;;7.40;1.40;;;3.80;99.90;;;;;;4970955;28;20194;-77
2021/04/07 07:08:59;;;;;;;4.13;1.20;;;3.90;99.90;;;;;;4973474;28;20210;-77
2021/04/07 07:11:27;;;;;;;3.10;0.80;;;4.10;99.90;;;;;;4974013;28;20272;-78
2021/04/07 07:13:53;;;;;;;3.63;1.20;;;4.30;99.90;;;;;;4952085;29;20207;-77
2021/04/07 07:16:26;;;;;;;2.63;0.70;;;4.30;99.90;;;;;;4972986;28;20241;-78
2021/04/07 07:18:52;;;;;;;3.13;0.60;;;4.30;99.90;;;;;;4949498;29;20193;-76
2021/04/07 07:21:17;;;;;;;3.00;0.60;;;4.30;99.90;;;;;;4959382;28;20593;-75
2021/04/07 07:23:45;;;;;;;4.10;1.00;;;4.40;99.90;;;;;;4958076;28;20198;-78
2021/04/07 07:26:12;;;;;;;5.67;0.93;;;4.50;99.90;;;;;;4953488;28;20221;-78
2021/04/07 07:28:53;;;;;;;5.53;0.70;;;4.60;99.90;;;;;;4953648;28;20195;-78
2021/04/07 07:31:30;;;;;;;9.30;1.10;;;4.70;99.90;;;;;;4967988;28;20193;-78
2021/04/07 07:33:58;;;;;;;4.43;1.23;;;4.80;99.90;;;;;;4952420;28;20186;-78
2021/04/07 07:36:24;;;;;;;8.40;2.23;;;4.90;99.90;;;;;;4954363;28;20245;-80
2021/04/07 07:38:56;;;;;;;6.57;1.43;;;4.90;99.90;;;;;;4969192;28;20225;-77
2021/04/07 07:41:37;;;;;;;8.83;1.77;;;5.00;99.90;;;;;;4954096;28;20334;-76
2021/04/07 07:44:04;;;;;;;4.73;1.00;;;5.00;99.90;;;;;;4973429;28;20653;-77
2021/04/07 07:46:31;;;;;;;2.73;0.80;;;4.90;99.90;;;;;;4951101;28;20548;-78
2021/04/07 07:48:58;;;;;;;3.77;1.10;;;4.90;99.90;;;;;;4949092;28;20355;-78
2021/04/07 07:51:25;;;;;;;2.53;0.70;;;5.10;99.90;;;;;;4955209;28;20663;-78
2021/04/07 07:53:53;;;;;;;5.27;0.87;;;5.20;99.90;;;;;;4954785;28;20277;-78
2021/04/07 07:56:21;;;;;;;3.13;0.80;;;5.40;99.90;;;;;;4951149;28;20680;-78
2021/04/07 07:58:49;;;;;;;5.63;1.10;;;5.50;99.90;;;;;;4956744;28;20524;-78
2021/04/07 08:01:15;;;;;;;6.30;0.70;;;5.60;99.90;;;;;;4957791;28;20221;-78
2021/04/07 08:03:46;;;;;;;2.83;0.60;;;5.60;99.90;;;;;;4969905;28;20256;-78
2021/04/07 08:06:12;;;;;;;4.87;0.40;;;5.80;99.90;;;;;;4949230;28;20201;-77
2021/04/07 08:08:38;;;;;;;4.23;0.60;;;6.10;99.90;;;;;;4970621;28;20269;-77
2021/04/07 08:11:05;;;;;;;3.73;0.60;;;6.20;99.90;;;;;;4958224;28;20237;-78
2021/04/07 08:13:43;;;;;;;7.17;1.13;;;6.00;99.90;;;;;;4958006;28;20183;-78
2021/04/07 08:16:12;;;;;;;1.67;0.53;;;6.00;99.90;;;;;;4975069;28;20257;-77
2021/04/07 08:18:38;;;;;;;4.60;0.60;;;5.90;99.90;;;;;;4967604;28;20230;-78
2021/04/07 08:21:04;;;;;;;3.00;0.70;;;5.90;99.90;;;;;;4957768;28;20201;-77
2021/04/07 08:23:31;;;;;;;3.87;0.80;;;5.90;99.90;;;;;;4958141;28;20174;-78
2021/04/07 08:25:59;;;;;;;3.00;0.60;;;5.90;99.90;;;;;;4973835;28;20239;-78
2021/04/07 08:28:26;;;;;;;2.33;0.57;;;6.00;99.90;;;;;;4975533;28;20694;-78
2021/04/07 08:30:52;;;;;;;4.53;0.60;;;6.10;99.90;;;;;;4973254;28;20202;-77
2021/04/07 08:33:22;;;;;;;6.30;0.97;;;6.30;99.90;;;;;;4972543;28;20185;-77
2021/04/07 08:35:52;;;;;;;3.80;0.87;;;6.30;99.90;;;;;;4957017;28;20213;-77
2021/04/07 08:38:29;;;;;;;6.00;1.00;;;6.30;99.90;;;;;;4952116;28;20202;-78
2021/04/07 08:41:10;;;;;;;2.87;0.70;;;6.20;99.90;;;;;;4971902;28;20204;-78
2021/04/07 08:43:37;;;;;;;2.57;0.80;;;6.30;99.90;;;;;;4975300;28;20217;-78
2021/04/07 08:46:19;;;;;;;5.00;0.80;;;6.50;99.90;;;;;;4957183;28;20189;-78
2021/04/07 08:48:45;;;;;;;3.53;0.60;;;6.60;99.90;;;;;;4976488;28;20174;-78
2021/04/07 08:51:15;;;;;;;6.23;0.60;;;6.70;99.90;;;;;;4973602;28;20201;-78
2021/04/07 08:53:43;;;;;;;2.97;1.00;;;6.70;99.90;;;;;;4953208;28;20205;-79
2021/04/07 08:56:14;;;;;;;6.50;1.10;;;6.70;99.90;;;;;;4977658;28;20279;-79
2021/04/07 08:58:56;;;;;;;4.57;1.20;;;6.70;99.90;;;;;;4957614;28;20641;-77
2021/04/07 09:01:23;;;;;;;2.83;0.70;;;6.60;99.90;;;;;;4956165;28;20624;-77
2021/04/07 09:03:49;;;;;;;5.03;1.10;;;6.50;99.90;;;;;;4954406;29;20183;-79
2021/04/07 09:06:15;;;;;;;2.93;0.73;;;6.70;99.90;;;;;;4977866;28;20208;-79
2021/04/07 09:08:52;;;;;;;2.30;0.60;;;6.80;99.90;;;;;;4960066;28;20189;-76
2021/04/07 09:11:33;;;;;;;8.73;1.50;;;6.70;99.90;;;;;;4960483;28;20673;-78
2021/04/07 09:14:03;;;;;;;6.93;0.90;;;6.60;99.90;;;;;;4960197;28;20329;-77
2021/04/07 09:16:37;;;;;;;7.70;1.60;;;6.60;99.90;;;;;;4958992;28;20698;-77
2021/04/07 09:19:21;;;;;;;7.20;1.73;;;6.50;99.90;;;;;;4958135;28;20187;-79
2021/04/07 09:22:05;;;;;;;6.50;1.17;;;6.20;99.90;;;;;;4958578;28;20182;-75
2021/04/07 09:24:38;;;;;;;6.57;0.83;;;6.20;99.90;;;;;;4961529;28;20178;-76
2021/04/07 09:27:04;;;;;;;8.20;0.80;;;5.90;99.90;;;;;;4960695;28;20185;-76
2021/04/07 09:29:29;;;;;;;5.73;1.07;;;5.50;99.90;;;;;;4950386;28;20298;-77
2021/04/07 09:31:55;;;;;;;5.60;1.40;;;4.80;99.90;;;;;;4947855;28;20213;-78
2021/04/07 09:34:21;;;;;;;10.77;1.60;;;4.90;99.90;;;;;;4947907;29;20183;-77
2021/04/07 09:36:48;;;;;;;6.33;1.73;;;5.00;99.90;;;;;;4951270;28;20198;-76
2021/04/07 09:39:16;;;;;;;9.27;1.47;;;5.00;99.90;;;;;;4955871;28;20178;-78
2021/04/07 09:41:44;;;;;;;9.53;1.50;;;5.00;99.90;;;;;;4970693;28;20192;-78
2021/04/07 09:44:15;;;;;;;7.33;1.27;;;5.00;99.90;;;;;;4948322;28;20181;-77
2021/04/07 09:46:48;;;;;;;8.97;2.03;;;5.00;99.90;;;;;;4952932;28;20213;-77
2021/04/07 09:49:26;;;;;;;5.73;1.63;;;5.00;99.90;;;;;;4949501;28;20269;-78
2021/04/07 09:51:52;;;;;;;10.60;3.33;;;5.20;99.90;;;;;;4955122;28;20237;-79
2021/04/07 09:54:35;;;;;;;6.97;1.43;;;5.10;99.90;;;;;;4954593;28;20260;-78
2021/04/07 09:57:08;;;;;;;4.40;0.93;;;5.10;99.90;;;;;;4955626;28;20198;-78
2021/04/07 09:59:34;;;;;;;7.00;1.10;;;5.30;99.90;;;;;;4953633;28;20686;-78
2021/04/07 10:02:00;;;;;;;4.13;1.00;;;5.40;99.90;;;;;;4970497;28;20187;-77
2021/04/07 10:04:27;;;;;;;6.83;1.37;;;5.50;99.90;;;;;;4951202;28;20189;-79
2021/04/07 10:06:53;;;;;;;7.33;1.80;;;5.60;99.90;;;;;;4960775;28;20189;-79
2021/04/07 10:09:27;;;;;;;9.60;1.20;;;5.60;99.90;;;;;;4956293;28;20269;-79
2021/04/07 10:11:53;;;;;;;9.30;1.50;;;5.90;99.90;;;;;;4956554;28;20177;-76
2021/04/07 10:14:19;;;;;;;7.87;1.20;;;6.30;99.90;;;;;;4955316;28;20193;-78
2021/04/07 10:16:44;;;;;;;11.53;1.93;;;6.60;99.90;;;;;;4955195;28;20193;-79
2021/04/07 10:19:11;;;;;;;9.10;2.37;;;6.80;99.90;;;;;;4970854;28;20197;-79
2021/04/07 10:21:39;;;;;;;18.33;3.20;;;7.20;99.90;;;;;;4949349;28;20252;-77
2021/04/07 10:24:06;;;;;;;13.73;2.30;;;7.30;99.90;;;;;;4953191;28;20203;-81
2021/04/07 10:26:44;;;;;;;16.00;2.67;;;7.00;99.90;;;;;;4968199;28;20186;-78
2021/04/07 10:29:24;;;;;;;9.00;1.90;;;6.80;99.90;;;;;;4954808;28;20558;-78
2021/04/07 10:31:51;;;;;;;9.27;1.70;;;6.50;99.90;;;;;;4950830;28;20196;-78
2021/04/07 10:34:17;;;;;;;9.63;2.20;;;6.40;99.90;;;;;;4966486;28;20201;-78
2021/04/07 10:36:45;;;;;;;11.97;1.93;;;6.50;99.90;;;;;;4956491;28;20208;-79
2021/04/07 10:39:12;;;;;;;11.63;1.93;;;6.60;99.90;;;;;;4953994;28;20273;-77
2021/04/07 10:41:39;;;;;;;13.30;1.50;;;6.90;99.90;;;;;;4955966;28;20591;-77
2021/04/07 10:44:06;;;;;;;10.33;1.83;;;7.20;99.90;;;;;;4952048;28;20718;-79
2021/04/07 10:46:32;;;;;;;12.73;2.50;;;7.10;99.90;;;;;;4962612;28;20190;-78
2021/04/07 10:48:58;;;;;;;13.93;2.03;;;6.80;99.90;;;;;;4971503;28;20206;-79
2021/04/07 10:51:25;;;;;;;11.03;2.67;;;6.60;99.90;;;;;;4945262;28;20230;-76
2021/04/07 10:53:58;;;;;;;17.40;3.57;;;6.70;99.90;;;;;;4954426;28;20198;-78
2021/04/07 10:56:26;;;;;;;13.13;3.03;;;6.60;99.90;;;;;;4952142;28;20221;-77
2021/04/07 10:59:03;;;;;;;7.53;0.97;;;6.50;99.90;;;;;;4957334;28;20214;-77
2021/04/07 11:01:31;;;;;;;11.50;2.43;;;6.60;99.90;;;;;;4954820;28;20209;-77
2021/04/07 11:03:57;;;;;;;11.07;1.83;;;6.80;99.90;;;;;;4964118;28;20185;-77
2021/04/07 11:06:24;;;;;;;10.67;1.37;;;6.70;99.90;;;;;;4953980;28;20562;-76
2021/04/07 11:08:53;;;;;;;8.70;1.70;;;6.80;99.90;;;;;;4954799;28;20673;-78
2021/04/07 11:11:25;;;;;;;11.00;1.90;;;6.80;99.90;;;;;;4951855;28;20209;-77
2021/04/07 11:13:52;;;;;;;9.07;1.47;;;6.80;99.90;;;;;;4949043;28;20191;-77
2021/04/07 11:16:18;;;;;;;9.83;1.90;;;6.80;99.90;;;;;;4971332;28;20289;-77
2021/04/07 11:18:44;;;;;;;8.20;1.57;;;7.10;99.90;;;;;;4969527;28;20178;-76
2021/04/07 11:21:10;;;;;;;8.70;1.53;;;7.60;99.90;;;;;;4957362;28;20205;-76
2021/04/07 11:23:36;;;;;;;11.93;2.37;;;7.60;99.90;;;;;;4962089;28;20181;-76
2021/04/07 11:26:08;;;;;;;12.33;1.93;;;7.60;99.90;;;;;;4954410;28;20213;-77
2021/04/07 11:28:34;;;;;;;10.53;2.00;;;7.40;99.90;;;;;;4952830;28;20197;-80
2021/04/07 11:31:06;;;;;;;11.47;2.67;;;7.40;99.90;;;;;;4965090;28;20296;-75
2021/04/07 11:34:21;;;;;;;11.47;2.50;;;7.80;99.90;;;;;;4954075;28;20245;-77
2021/04/07 11:38:49;;;;;;;11.87;2.53;;;7.80;99.90;;;;;;4972542;28;20646;-76
2021/04/07 11:46:25;;;;;;;10.57;1.87;;;8.30;99.90;;;;;;4969277;28;20257;-75
2021/04/07 11:48:51;;;;;;;7.90;1.10;;;8.50;99.90;;;;;;4981496;28;20809;-76
2021/04/07 11:51:18;;;;;;;6.70;1.40;;;8.50;99.90;;;;;;4982524;28;20218;-77
2021/04/07 11:53:47;;;;;;;5.60;1.43;;;8.20;99.90;;;;;;4955469;28;20329;-76
2021/04/07 11:56:13;;;;;;;9.90;1.80;;;8.30;99.90;;;;;;4955144;28;20576;-78
2021/04/07 11:58:38;;;;;;;9.87;1.27;;;8.30;99.90;;;;;;4966037;28;20179;-75
2021/04/07 12:01:04;;;;;;;9.17;1.47;;;8.20;99.90;;;;;;4958311;28;20221;-77
2021/04/07 12:03:30;;;;;;;10.00;1.87;;;8.10;99.90;;;;;;4950942;28;20189;-79
2021/04/07 12:05:56;;;;;;;9.83;2.47;;;7.80;99.90;;;;;;4958121;28;20269;-77
2021/04/07 12:08:22;;;;;;;12.77;2.67;;;7.70;99.90;;;;;;4957234;28;20210;-75
2021/04/07 12:10:49;;;;;;;8.30;1.47;;;7.90;99.90;;;;;;4952153;28;20205;-77
2021/04/07 12:13:14;;;;;;;11.97;2.23;;;7.90;99.90;;;;;;4974171;28;20239;-75
2021/04/07 12:15:40;;;;;;;9.77;2.33;;;8.20;99.90;;;;;;4955823;28;20673;-75
2021/04/07 12:18:06;;;;;;;9.70;1.97;;;8.20;99.90;;;;;;4955630;28;20189;-76
2021/04/07 12:20:32;;;;;;;7.63;1.23;;;8.10;99.90;;;;;;4953592;28;20297;-76
